Time,TemperatureF,DewpointF,PressureIn,WindDirection,WindDirectionDegrees,WindSpeedMPH,WindSpeedGustMPH,Humidity,HourlyPrecipIn,Conditions,Clouds,dailyrainin,SoftwareType,DateUTC
2013-03-28 00:00:00,34.5,33.8,29.88,SSW,203,0.0,0.0,97,0.00,,,0.04,meteohub,2013-03-28 04:00:00,
2013-03-28 00:02:00,34.5,33.8,29.89,SSW,203,0.0,0.0,97,0.00,,,0.04,meteohub,2013-03-28 04:02:00,
2013-03-28 00:03:00,34.3,33.6,29.88,SSW,203,0.0,0.0,97,0.00,,,0.04,meteohub,2013-03-28 04:03:00,
2013-03-28 00:08:00,34.3,33.6,29.89,SSW,203,0.0,0.0,97,0.00,,,0.04,meteohub,2013-03-28 04:08:00,
2013-03-28 00:13:00,34.2,33.4,29.88,SSW,202,0.0,0.0,97,0.00,,,0.04,meteohub,2013-03-28 04:13:00,
2013-03-28 00:19:00,34.2,33.4,29.88,SSW,203,0.0,0.0,97,0.00,,,0.04,meteohub,2013-03-28 04:19:00,
2013-03-28 00:24:00,34.2,33.4,29.88,SSW,202,0.0,0.0,97,0.00,,,0.04,meteohub,2013-03-28 04:24:00,
2013-03-28 00:29:00,34.2,33.4,29.88,SSW,203,0.0,0.0,97,0.00,,,0.04,meteohub,2013-03-28 04:29:00,
2013-03-28 00:34:00,34.0,33.3,29.88,SSW,203,0.0,1.0,97,0.00,,,0.04,meteohub,2013-03-28 04:34:00,
2013-03-28 00:40:00,33.8,33.1,29.88,SSW,203,0.0,1.0,97,0.00,,,0.04,meteohub,2013-03-28 04:40:00,
2013-03-28 00:45:00,33.6,32.9,29.88,SSW,203,0.0,1.0,97,0.00,,,0.04,meteohub,2013-03-28 04:45:00,
2013-03-28 00:50:00,33.6,32.9,29.88,SSW,203,0.0,0.0,97,0.00,,,0.04,meteohub,2013-03-28 04:50:00,
2013-03-28 00:55:00,33.6,32.9,29.88,SSW,202,0.0,0.0,97,0.00,,,0.04,meteohub,2013-03-28 04:55:00,
2013-03-28 01:00:00,33.6,32.9,29.88,SSW,203,0.0,0.0,97,0.00,,,0.04,meteohub,2013-03-28 05:00:00,
2013-03-28 01:05:00,33.4,32.7,29.88,SSW,202,0.0,0.0,97,0.00,,,0.04,meteohub,2013-03-28 05:05:00,
2013-03-28 01:11:00,33.4,32.7,29.88,SSW,202,0.0,0.0,97,0.00,,,0.04,meteohub,2013-03-28 05:11:00,
2013-03-28 01:16:00,33.4,32.9,29.88,SSW,203,0.0,0.0,98,0.00,,,0.04,meteohub,2013-03-28 05:16:00,
2013-03-28 01:22:00,33.6,33.1,29.89,SSW,202,0.0,0.0,98,0.00,,,0.04,meteohub,2013-03-28 05:22:00,
2013-03-28 01:27:00,33.8,33.3,29.89,SSW,203,0.0,0.0,98,0.00,,,0.04,meteohub,2013-03-28 05:27:00,
2013-03-28 01:32:00,34.0,33.4,29.89,SSW,211,0.0,0.0,98,0.00,,,0.04,meteohub,2013-03-28 05:32:00,
2013-03-28 01:37:00,34.2,33.6,29.89,West,269,1.0,1.0,98,0.00,,,0.04,meteohub,2013-03-28 05:37:00,
2013-03-28 01:43:00,34.2,33.6,29.89,West,269,0.0,3.0,98,0.00,,,0.04,meteohub,2013-03-28 05:43:00,
2013-03-28 01:48:00,34.2,33.6,29.89,West,269,0.0,3.0,98,0.00,,,0.04,meteohub,2013-03-28 05:48:00,
2013-03-28 01:53:00,34.2,33.6,29.89,West,269,0.0,3.0,98,0.00,,,0.04,meteohub,2013-03-28 05:53:00,
2013-03-28 01:58:00,34.0,33.4,29.88,West,269,0.0,0.0,98,0.00,,,0.04,meteohub,2013-03-28 05:58:00,
2013-03-28 02:04:00,33.8,33.3,29.88,West,269,0.0,0.0,98,0.00,,,0.04,meteohub,2013-03-28 06:04:00,
2013-03-28 02:09:00,33.6,33.1,29.88,West,269,0.0,0.0,98,0.00,,,0.04,meteohub,2013-03-28 06:09:00,
2013-03-28 02:14:00,33.6,33.1,29.88,West,269,0.0,0.0,98,0.00,,,0.04,meteohub,2013-03-28 06:14:00,
2013-03-28 02:20:00,33.4,32.7,29.88,West,269,0.0,0.0,97,0.00,,,0.04,meteohub,2013-03-28 06:20:00,
2013-03-28 02:25:00,33.4,32.7,29.87,West,269,0.0,0.0,97,0.00,,,0.04,meteohub,2013-03-28 06:25:00,
2013-03-28 02:30:00,33.4,32.9,29.87,West,269,0.0,0.0,98,0.00,,,0.04,meteohub,2013-03-28 06:30:00,
2013-03-28 02:35:00,33.3,32.7,29.87,West,269,0.0,1.0,98,0.00,,,0.04,meteohub,2013-03-28 06:35:00,
2013-03-28 02:40:00,33.3,32.7,29.88,West,276,1.0,1.0,98,0.00,,,0.04,meteohub,2013-03-28 06:40:00,
2013-03-28 02:46:00,33.4,32.9,29.88,NNW,331,0.0,2.0,98,0.00,,,0.04,meteohub,2013-03-28 06:46:00,
2013-03-28 02:51:00,33.4,32.9,29.88,NNW,342,1.0,2.0,98,0.00,,,0.04,meteohub,2013-03-28 06:51:00,
2013-03-28 02:56:00,33.6,33.1,29.88,NNW,344,0.0,3.0,98,0.00,,,0.04,meteohub,2013-03-28 06:56:00,
2013-03-28 03:02:00,33.8,33.3,29.88,NNW,344,0.0,3.0,98,0.00,,,0.04,meteohub,2013-03-28 07:02:00,
2013-03-28 03:07:00,33.8,33.3,29.88,NNW,344,0.0,3.0,98,0.00,,,0.04,meteohub,2013-03-28 07:07:00,
2013-03-28 03:12:00,33.8,33.3,29.87,NNW,344,2.0,2.0,98,0.00,,,0.04,meteohub,2013-03-28 07:12:00,
2013-03-28 03:17:00,33.4,32.9,29.87,NNW,344,0.0,2.0,98,0.00,,,0.04,meteohub,2013-03-28 07:17:00,
2013-03-28 03:22:00,33.4,32.9,29.87,NNW,344,0.0,2.0,98,0.00,,,0.04,meteohub,2013-03-28 07:22:00,
2013-03-28 03:27:00,33.3,32.7,29.87,NNW,344,0.0,2.0,98,0.00,,,0.04,meteohub,2013-03-28 07:27:00,
2013-03-28 03:32:00,33.3,32.7,29.87,NNW,344,0.0,1.0,98,0.00,,,0.04,meteohub,2013-03-28 07:32:00,
2013-03-28 03:37:00,33.4,32.9,29.88,NNW,344,0.0,1.0,98,0.00,,,0.04,meteohub,2013-03-28 07:37:00,
2013-03-28 03:43:00,33.6,33.1,29.88,NNW,344,0.0,2.0,98,0.00,,,0.04,meteohub,2013-03-28 07:43:00,
2013-03-28 03:48:00,33.6,33.1,29.88,NNW,344,0.0,2.0,98,0.00,,,0.04,meteohub,2013-03-28 07:48:00,
2013-03-28 03:53:00,33.6,33.1,29.87,NNW,344,0.0,2.0,98,0.00,,,0.04,meteohub,2013-03-28 07:53:00,
2013-03-28 03:58:00,33.4,32.9,29.87,NNW,344,0.0,1.0,98,0.00,,,0.04,meteohub,2013-03-28 07:58:00,
2013-03-28 04:03:00,33.3,32.7,29.88,NNW,344,0.0,1.0,98,0.00,,,0.04,meteohub,2013-03-28 08:03:00,
2013-03-28 04:09:00,33.1,32.5,29.88,NNW,344,0.0,1.0,98,0.00,,,0.04,meteohub,2013-03-28 08:09:00,
2013-03-28 04:14:00,32.7,32.2,29.88,NNW,344,0.0,0.0,98,0.00,,,0.04,meteohub,2013-03-28 08:14:00,
2013-03-28 04:19:00,32.5,32.0,29.88,NNW,344,0.0,0.0,98,0.00,,,0.04,meteohub,2013-03-28 08:19:00,
2013-03-28 04:24:00,32.5,32.0,29.88,NNW,344,0.0,0.0,98,0.00,,,0.04,meteohub,2013-03-28 08:24:00,
2013-03-28 04:30:00,32.7,32.2,29.88,NNW,344,0.0,0.0,98,0.00,,,0.04,meteohub,2013-03-28 08:30:00,
2013-03-28 04:35:00,32.9,32.4,29.88,NNW,344,0.0,0.0,98,0.00,,,0.04,meteohub,2013-03-28 08:35:00,
2013-03-28 04:40:00,32.9,32.4,29.88,NNW,344,0.0,1.0,98,0.00,,,0.04,meteohub,2013-03-28 08:40:00,
2013-03-28 04:46:00,32.9,32.4,29.88,NNW,344,0.0,1.0,98,0.00,,,0.04,meteohub,2013-03-28 08:46:00,
2013-03-28 04:52:00,32.9,32.4,29.88,NNW,344,0.0,1.0,98,0.00,,,0.04,meteohub,2013-03-28 08:52:00,
2013-03-28 04:57:00,32.9,32.4,29.88,NNW,344,0.0,1.0,98,0.00,,,0.04,meteohub,2013-03-28 08:57:00,
2013-03-28 05:02:00,32.7,32.2,29.88,NNW,344,0.0,0.0,98,0.00,,,0.04,meteohub,2013-03-28 09:02:00,
2013-03-28 05:07:00,32.7,32.2,29.88,NNW,344,1.0,1.0,98,0.00,,,0.04,meteohub,2013-03-28 09:07:00,
2013-03-28 05:12:00,32.9,32.4,29.88,NNW,344,0.0,2.0,98,0.00,,,0.04,meteohub,2013-03-28 09:12:00,
2013-03-28 05:17:00,32.7,32.2,29.88,NNW,344,0.0,2.0,98,0.00,,,0.04,meteohub,2013-03-28 09:17:00,
2013-03-28 05:22:00,32.7,32.2,29.88,NNW,344,0.0,2.0,98,0.00,,,0.04,meteohub,2013-03-28 09:22:00,
2013-03-28 05:27:00,32.7,32.2,29.88,NNW,344,0.0,0.0,98,0.00,,,0.04,meteohub,2013-03-28 09:27:00,
2013-03-28 05:32:00,32.7,32.2,29.88,NNW,344,0.0,0.0,98,0.00,,,0.04,meteohub,2013-03-28 09:32:00,
2013-03-28 05:37:00,32.7,32.2,29.89,NNW,344,0.0,0.0,98,0.00,,,0.04,meteohub,2013-03-28 09:37:00,
2013-03-28 05:43:00,32.7,32.2,29.89,NNW,344,0.0,1.0,98,0.00,,,0.04,meteohub,2013-03-28 09:43:00,
2013-03-28 05:48:00,32.9,32.4,29.89,NNW,344,0.0,1.0,98,0.00,,,0.04,meteohub,2013-03-28 09:48:00,
2013-03-28 05:54:00,32.7,32.2,29.88,NNW,344,0.0,1.0,98,0.00,,,0.04,meteohub,2013-03-28 09:54:00,
2013-03-28 05:59:00,32.7,32.2,29.89,NNW,344,1.0,1.0,98,0.00,,,0.04,meteohub,2013-03-28 09:59:00,
2013-03-28 06:04:00,32.7,32.2,29.89,NNW,344,0.0,1.0,98,0.00,,,0.04,meteohub,2013-03-28 10:04:00,
2013-03-28 06:09:00,32.7,32.2,29.89,NNW,344,0.0,1.0,98,0.00,,,0.04,meteohub,2013-03-28 10:09:00,
2013-03-28 06:15:00,32.7,32.2,29.89,NNW,344,0.0,1.0,98,0.00,,,0.04,meteohub,2013-03-28 10:15:00,
2013-03-28 06:20:00,32.7,32.2,29.89,NNW,344,0.0,0.0,98,0.00,,,0.04,meteohub,2013-03-28 10:20:00,
2013-03-28 06:25:00,32.5,32.0,29.89,NNW,344,0.0,0.0,98,0.00,,,0.04,meteohub,2013-03-28 10:25:00,
2013-03-28 06:30:00,32.5,32.0,29.89,NNW,344,0.0,0.0,98,0.00,,,0.04,meteohub,2013-03-28 10:30:00,
2013-03-28 06:36:00,32.4,31.8,29.90,NNW,344,0.0,0.0,98,0.00,,,0.04,meteohub,2013-03-28 10:36:00,
2013-03-28 06:41:00,32.2,31.6,29.90,NNW,344,0.0,0.0,98,0.00,,,0.04,meteohub,2013-03-28 10:41:00,
2013-03-28 06:46:00,32.2,31.6,29.90,NNW,344,0.0,0.0,98,0.00,,,0.04,meteohub,2013-03-28 10:46:00,
2013-03-28 06:52:00,32.0,31.5,29.90,NNW,344,0.0,0.0,98,0.00,,,0.04,meteohub,2013-03-28 10:52:00,
2013-03-28 06:57:00,32.0,31.5,29.90,NNW,344,0.0,0.0,98,0.00,,,0.04,meteohub,2013-03-28 10:57:00,
2013-03-28 07:02:00,32.2,31.6,29.90,NNW,344,0.0,0.0,98,0.00,,,0.04,meteohub,2013-03-28 11:02:00,
2013-03-28 07:07:00,32.2,31.6,29.90,NNW,344,0.0,0.0,98,0.00,,,0.04,meteohub,2013-03-28 11:07:00,
2013-03-28 07:12:00,32.4,31.8,29.91,NNW,344,0.0,1.0,98,0.00,,,0.04,meteohub,2013-03-28 11:12:00,
2013-03-28 07:17:00,32.5,32.0,29.91,NNW,344,1.0,1.0,98,0.00,,,0.04,meteohub,2013-03-28 11:17:00,
2013-03-28 07:22:00,32.9,32.4,29.91,NNW,344,0.0,2.0,98,0.00,,,0.04,meteohub,2013-03-28 11:22:00,
2013-03-28 07:27:00,33.3,32.7,29.91,NNW,344,0.0,2.0,98,0.00,,,0.04,meteohub,2013-03-28 11:27:00,
2013-03-28 07:32:00,33.3,32.7,29.91,NNW,344,0.0,2.0,98,0.00,,,0.04,meteohub,2013-03-28 11:32:00,
2013-03-28 07:37:00,33.4,32.9,29.91,NNW,344,0.0,1.0,98,0.00,,,0.04,meteohub,2013-03-28 11:37:00,
2013-03-28 07:42:00,33.8,33.3,29.91,NNW,344,1.0,1.0,98,0.00,,,0.04,meteohub,2013-03-28 11:42:00,
2013-03-28 07:47:00,34.2,33.6,29.91,NNW,344,0.0,2.0,98,0.00,,,0.04,meteohub,2013-03-28 11:47:00,
2013-03-28 07:52:00,34.3,33.8,29.91,NNW,344,1.0,3.0,98,0.00,,,0.04,meteohub,2013-03-28 11:52:00,
2013-03-28 07:57:00,34.7,34.2,29.91,NNE,28,2.0,3.0,98,0.00,,,0.04,meteohub,2013-03-28 11:57:00,
2013-03-28 08:02:00,35.1,34.5,29.91,NNE,29,1.0,3.0,98,0.00,,,0.04,meteohub,2013-03-28 12:02:00,
2013-03-28 08:07:00,35.8,35.2,29.91,NNE,29,0.0,2.0,98,0.00,,,0.04,meteohub,2013-03-28 12:07:00,
2013-03-28 08:12:00,36.1,35.6,29.91,NNE,29,0.0,2.0,98,0.00,,,0.04,meteohub,2013-03-28 12:12:00,
2013-03-28 08:17:00,36.3,35.8,29.91,North,355,0.0,3.0,98,0.00,,,0.04,meteohub,2013-03-28 12:17:00,
2013-03-28 08:22:00,36.5,35.4,29.91,North,355,0.0,3.0,96,0.00,,,0.04,meteohub,2013-03-28 12:22:00,
2013-03-28 08:27:00,36.9,35.6,29.91,North,355,0.0,3.0,95,0.00,,,0.04,meteohub,2013-03-28 12:27:00,
2013-03-28 08:33:00,37.2,35.6,29.91,North,355,0.0,3.0,94,0.00,,,0.04,meteohub,2013-03-28 12:33:00,
2013-03-28 08:38:00,37.4,35.2,29.91,North,355,0.0,2.0,92,0.00,,,0.04,meteohub,2013-03-28 12:38:00,
2013-03-28 08:43:00,37.8,35.4,29.92,NW,321,0.0,1.0,91,0.00,,,0.04,meteohub,2013-03-28 12:43:00,
2013-03-28 08:48:00,37.8,35.1,29.91,NNE,22,0.0,2.0,90,0.00,,,0.04,meteohub,2013-03-28 12:48:00,
2013-03-28 08:54:00,38.1,35.4,29.91,NNE,22,0.0,2.0,90,0.00,,,0.04,meteohub,2013-03-28 12:54:00,
2013-03-28 08:59:00,38.5,35.2,29.92,NNE,22,0.0,2.0,88,0.00,,,0.04,meteohub,2013-03-28 12:59:00,
2013-03-28 09:04:00,38.8,35.2,29.92,North,350,2.0,2.0,87,0.00,,,0.04,meteohub,2013-03-28 13:04:00,
2013-03-28 09:09:00,39.2,35.1,29.92,North,350,0.0,4.0,85,0.00,,,0.04,meteohub,2013-03-28 13:09:00,
2013-03-28 09:14:00,39.4,35.2,29.92,WNW,294,0.0,4.0,85,0.00,,,0.04,meteohub,2013-03-28 13:14:00,
2013-03-28 09:20:00,39.7,34.7,29.92,NNE,21,2.0,4.0,82,0.00,,,0.04,meteohub,2013-03-28 13:20:00,
2013-03-28 09:25:00,40.5,35.4,29.92,NNE,20,2.0,3.0,82,0.00,,,0.04,meteohub,2013-03-28 13:25:00,
2013-03-28 09:30:00,41.0,35.2,29.92,NNW,348,0.0,4.0,80,0.00,,,0.04,meteohub,2013-03-28 13:30:00,
2013-03-28 09:35:00,41.5,34.5,29.92,North,5,2.0,4.0,76,0.00,,,0.04,meteohub,2013-03-28 13:35:00,
2013-03-28 09:41:00,41.5,34.2,29.92,NNW,348,0.0,4.0,75,0.00,,,0.04,meteohub,2013-03-28 13:41:00,
2013-03-28 09:46:00,41.7,33.4,29.92,NNE,15,0.0,6.0,72,0.00,,,0.04,meteohub,2013-03-28 13:46:00,
2013-03-28 09:52:00,41.9,32.5,29.92,NNE,13,1.0,6.0,69,0.00,,,0.04,meteohub,2013-03-28 13:52:00,
2013-03-28 09:57:00,42.1,32.7,29.92,NNW,347,4.0,6.0,69,0.00,,,0.04,meteohub,2013-03-28 13:57:00,
2013-03-28 10:02:00,42.3,32.2,29.92,North,355,3.0,7.0,67,0.00,,,0.04,meteohub,2013-03-28 14:02:00,
2013-03-28 10:07:00,42.3,32.2,29.92,NNE,23,1.0,7.0,67,0.00,,,0.04,meteohub,2013-03-28 14:07:00,
2013-03-28 10:12:00,42.8,32.2,29.92,NNE,28,1.0,5.0,66,0.00,,,0.04,meteohub,2013-03-28 14:12:00,
2013-03-28 10:17:00,43.0,30.9,29.92,NE,47,3.0,4.0,62,0.00,,,0.04,meteohub,2013-03-28 14:17:00,
2013-03-28 10:22:00,43.0,30.4,29.92,North,11,5.0,8.0,61,0.00,,,0.04,meteohub,2013-03-28 14:22:00,
2013-03-28 10:27:00,43.2,29.3,29.92,NE,37,3.0,8.0,58,0.00,,,0.04,meteohub,2013-03-28 14:27:00,
2013-03-28 10:33:00,43.3,29.5,29.92,North,355,3.0,8.0,58,0.00,,,0.04,meteohub,2013-03-28 14:33:00,
2013-03-28 10:38:00,43.3,27.3,29.92,ENE,61,3.0,8.0,53,0.00,,,0.04,meteohub,2013-03-28 14:38:00,
2013-03-28 10:43:00,43.3,28.8,29.92,NE,52,3.0,12.0,56,0.00,,,0.04,meteohub,2013-03-28 14:43:00,
2013-03-28 10:48:00,43.3,27.3,29.92,NNW,338,3.0,12.0,53,0.00,,,0.04,meteohub,2013-03-28 14:48:00,
2013-03-28 10:53:00,43.7,29.1,29.92,East,81,2.0,12.0,56,0.00,,,0.04,meteohub,2013-03-28 14:53:00,
2013-03-28 10:58:00,43.9,27.3,29.92,NNE,15,1.0,11.0,52,0.00,,,0.04,meteohub,2013-03-28 14:58:00,
2013-03-28 11:04:00,43.3,27.3,29.92,ENE,61,8.0,11.0,53,0.00,,,0.04,meteohub,2013-03-28 15:04:00,
2013-03-28 11:09:00,43.5,28.0,29.92,ENE,63,4.0,11.0,54,0.00,,,0.04,meteohub,2013-03-28 15:09:00,
2013-03-28 11:14:00,44.1,28.4,29.91,NNE,15,1.0,11.0,54,0.00,,,0.04,meteohub,2013-03-28 15:14:00,
2013-03-28 11:19:00,44.2,27.3,29.91,ENE,61,2.0,11.0,51,0.00,,,0.04,meteohub,2013-03-28 15:19:00,
2013-03-28 11:24:00,44.8,28.2,29.91,North,355,1.0,8.0,52,0.00,,,0.04,meteohub,2013-03-28 15:24:00,
2013-03-28 11:30:00,45.1,28.0,29.91,NW,313,4.0,8.0,51,0.00,,,0.04,meteohub,2013-03-28 15:30:00,
2013-03-28 11:35:00,45.3,27.9,29.91,ENE,57,2.0,8.0,50,0.00,,,0.04,meteohub,2013-03-28 15:35:00,
2013-03-28 11:40:00,45.3,27.9,29.91,NNW,344,0.0,8.0,50,0.00,,,0.04,meteohub,2013-03-28 15:40:00,
2013-03-28 11:45:00,46.0,28.4,29.91,NNE,16,3.0,7.0,50,0.00,,,0.04,meteohub,2013-03-28 15:45:00,
2013-03-28 11:51:00,45.9,27.9,29.90,NNW,334,3.0,7.0,49,0.00,,,0.04,meteohub,2013-03-28 15:51:00,
2013-03-28 11:56:00,46.2,28.6,29.90,NE,35,3.0,7.0,50,0.00,,,0.04,meteohub,2013-03-28 15:56:00,
2013-03-28 12:01:00,46.6,28.9,29.90,NNW,343,3.0,6.0,50,0.00,,,0.04,meteohub,2013-03-28 16:01:00,
2013-03-28 12:07:00,46.6,28.9,29.90,NNW,344,2.0,7.0,50,0.00,,,0.04,meteohub,2013-03-28 16:07:00,
2013-03-28 12:12:00,46.8,28.6,29.90,NE,34,2.0,8.0,49,0.00,,,0.04,meteohub,2013-03-28 16:12:00,
2013-03-28 12:17:00,46.6,28.4,29.90,North,349,2.0,8.0,49,0.00,,,0.04,meteohub,2013-03-28 16:17:00,
2013-03-28 12:22:00,46.8,28.6,29.90,North,355,1.0,9.0,49,0.00,,,0.04,meteohub,2013-03-28 16:22:00,
2013-03-28 12:27:00,46.8,28.6,29.90,North,350,4.0,9.0,49,0.00,,,0.04,meteohub,2013-03-28 16:27:00,
2013-03-28 12:32:00,46.4,28.8,29.90,North,5,3.0,9.0,50,0.00,,,0.04,meteohub,2013-03-28 16:32:00,
2013-03-28 12:37:00,46.2,28.6,29.90,North,355,3.0,9.0,50,0.00,,,0.04,meteohub,2013-03-28 16:37:00,
2013-03-28 12:43:00,46.6,28.9,29.90,NNW,343,3.0,9.0,50,0.00,,,0.04,meteohub,2013-03-28 16:43:00,
2013-03-28 12:48:00,46.8,28.0,29.89,NNE,16,8.0,8.0,48,0.00,,,0.04,meteohub,2013-03-28 16:48:00,
2013-03-28 12:53:00,46.9,28.8,29.89,NNE,25,7.0,9.0,49,0.00,,,0.04,meteohub,2013-03-28 16:53:00,
2013-03-28 12:58:00,46.9,28.8,29.89,North,5,7.0,9.0,49,0.00,,,0.04,meteohub,2013-03-28 16:58:00,
2013-03-28 13:04:00,46.9,28.2,29.89,NNW,331,5.0,10.0,48,0.00,,,0.04,meteohub,2013-03-28 17:04:00,
2013-03-28 13:09:00,47.1,27.9,29.89,NNW,343,7.0,11.0,47,0.00,,,0.04,meteohub,2013-03-28 17:09:00,
2013-03-28 13:14:00,46.6,28.4,29.89,NNW,337,4.0,11.0,49,0.00,,,0.04,meteohub,2013-03-28 17:14:00,
2013-03-28 13:20:00,46.9,28.2,29.89,North,355,4.0,11.0,48,0.00,,,0.04,meteohub,2013-03-28 17:20:00,
2013-03-28 13:25:00,47.8,28.0,29.89,NNW,342,6.0,9.0,46,0.00,,,0.04,meteohub,2013-03-28 17:25:00,
2013-03-28 13:30:00,47.8,28.0,29.89,North,355,5.0,9.0,46,0.00,,,0.04,meteohub,2013-03-28 17:30:00,
2013-03-28 13:36:00,47.8,28.6,29.89,WSW,255,2.0,9.0,47,0.00,,,0.04,meteohub,2013-03-28 17:36:00,
2013-03-28 13:41:00,48.0,28.2,29.88,WSW,255,3.0,10.0,46,0.00,,,0.04,meteohub,2013-03-28 17:41:00,
2013-03-28 13:46:00,48.4,28.6,29.88,NNE,23,0.0,11.0,46,0.00,,,0.04,meteohub,2013-03-28 17:46:00,
2013-03-28 13:51:00,48.6,28.8,29.89,NNW,343,7.0,11.0,46,0.00,,,0.04,meteohub,2013-03-28 17:51:00,
2013-03-28 13:57:00,48.6,28.8,29.89,WNW,284,2.0,11.0,46,0.00,,,0.04,meteohub,2013-03-28 17:57:00,
2013-03-28 14:02:00,48.7,28.4,29.88,WNW,289,8.0,10.0,45,0.00,,,0.04,meteohub,2013-03-28 18:02:00,
2013-03-28 14:07:00,48.4,28.0,29.88,North,355,6.0,9.0,45,0.00,,,0.04,meteohub,2013-03-28 18:07:00,
2013-03-28 14:12:00,47.7,27.9,29.88,NNE,20,7.0,12.0,46,0.00,,,0.04,meteohub,2013-03-28 18:12:00,
2013-03-28 14:17:00,47.7,27.3,29.88,North,355,2.0,12.0,45,0.00,,,0.04,meteohub,2013-03-28 18:17:00,
2013-03-28 14:22:00,48.4,27.5,29.88,North,5,5.0,12.0,44,0.00,,,0.04,meteohub,2013-03-28 18:22:00,
2013-03-28 14:27:00,48.2,26.8,29.87,North,11,5.0,10.0,43,0.00,,,0.04,meteohub,2013-03-28 18:27:00,
2013-03-28 14:32:00,48.0,27.1,29.87,NNE,13,3.0,13.0,44,0.00,,,0.04,meteohub,2013-03-28 18:32:00,
2013-03-28 14:37:00,48.6,28.8,29.87,NNE,22,2.0,13.0,46,0.00,,,0.04,meteohub,2013-03-28 18:37:00,
2013-03-28 14:42:00,48.7,27.9,29.87,NNE,19,4.0,13.0,44,0.00,,,0.04,meteohub,2013-03-28 18:42:00,
2013-03-28 14:47:00,48.7,27.3,29.87,NNW,335,9.0,11.0,43,0.00,,,0.04,meteohub,2013-03-28 18:47:00,
2013-03-28 14:52:00,48.6,27.7,29.87,North,5,1.0,11.0,44,0.00,,,0.04,meteohub,2013-03-28 18:52:00,
2013-03-28 14:57:00,48.7,27.3,29.87,NNE,20,3.0,11.0,43,0.00,,,0.04,meteohub,2013-03-28 18:57:00,
2013-03-28 15:02:00,48.9,27.3,29.87,NW,309,3.0,11.0,43,0.00,,,0.04,meteohub,2013-03-28 19:02:00,
2013-03-28 15:07:00,48.6,27.1,29.87,North,0,2.0,11.0,43,0.00,,,0.04,meteohub,2013-03-28 19:07:00,
2013-03-28 15:13:00,48.4,27.5,29.87,North,351,7.0,9.0,44,0.00,,,0.04,meteohub,2013-03-28 19:13:00,
2013-03-28 15:18:00,48.7,27.3,29.87,NNW,331,3.0,10.0,43,0.00,,,0.04,meteohub,2013-03-28 19:18:00,
2013-03-28 15:23:00,48.9,27.3,29.87,NNW,339,8.0,12.0,43,0.00,,,0.04,meteohub,2013-03-28 19:23:00,
2013-03-28 15:28:00,48.7,27.3,29.86,NNW,336,4.0,12.0,43,0.00,,,0.04,meteohub,2013-03-28 19:28:00,
2013-03-28 15:34:00,48.6,28.2,29.86,North,349,5.0,12.0,45,0.00,,,0.04,meteohub,2013-03-28 19:34:00,
2013-03-28 15:39:00,48.6,27.7,29.86,North,355,8.0,11.0,44,0.00,,,0.04,meteohub,2013-03-28 19:39:00,
2013-03-28 15:44:00,48.7,27.3,29.86,North,10,2.0,9.0,43,0.00,,,0.04,meteohub,2013-03-28 19:44:00,
2013-03-28 15:50:00,48.7,27.3,29.86,North,355,7.0,9.0,43,0.00,,,0.04,meteohub,2013-03-28 19:50:00,
2013-03-28 15:55:00,48.7,27.9,29.86,North,5,3.0,12.0,44,0.00,,,0.04,meteohub,2013-03-28 19:55:00,
2013-03-28 16:00:00,48.9,27.3,29.86,NNW,337,4.0,12.0,43,0.00,,,0.04,meteohub,2013-03-28 20:00:00,
2013-03-28 16:05:00,48.7,27.9,29.86,North,0,0.0,8.0,44,0.00,,,0.04,meteohub,2013-03-28 20:05:00,
2013-03-28 16:11:00,48.7,27.3,29.86,North,5,1.0,10.0,43,0.00,,,0.04,meteohub,2013-03-28 20:11:00,
2013-03-28 16:16:00,48.7,26.6,29.86,NW,319,7.0,10.0,42,0.00,,,0.04,meteohub,2013-03-28 20:16:00,
2013-03-28 16:21:00,48.6,27.1,29.86,NNW,348,7.0,10.0,43,0.00,,,0.04,meteohub,2013-03-28 20:21:00,
2013-03-28 16:27:00,48.2,26.8,29.86,NNW,346,3.0,10.0,43,0.00,,,0.04,meteohub,2013-03-28 20:27:00,
2013-03-28 16:32:00,48.0,26.6,29.86,North,9,4.0,11.0,43,0.00,,,0.04,meteohub,2013-03-28 20:32:00,
2013-03-28 16:37:00,47.8,27.0,29.86,NNE,17,9.0,11.0,44,0.00,,,0.04,meteohub,2013-03-28 20:37:00,
2013-03-28 16:42:00,47.8,27.0,29.86,North,5,8.0,11.0,44,0.00,,,0.04,meteohub,2013-03-28 20:42:00,
2013-03-28 16:47:00,47.8,27.5,29.86,NNW,335,4.0,9.0,45,0.00,,,0.04,meteohub,2013-03-28 20:47:00,
2013-03-28 16:53:00,47.8,27.5,29.86,NNW,339,5.0,9.0,45,0.00,,,0.04,meteohub,2013-03-28 20:53:00,
2013-03-28 16:58:00,47.7,27.9,29.86,North,5,3.0,8.0,46,0.00,,,0.04,meteohub,2013-03-28 20:58:00,
2013-03-28 17:03:00,47.7,27.9,29.86,North,5,3.0,7.0,46,0.00,,,0.04,meteohub,2013-03-28 21:03:00,
2013-03-28 17:08:00,47.7,27.9,29.85,North,350,5.0,8.0,46,0.00,,,0.04,meteohub,2013-03-28 21:08:00,
2013-03-28 17:14:00,47.7,27.3,29.85,WNW,297,3.0,10.0,45,0.00,,,0.04,meteohub,2013-03-28 21:14:00,
2013-03-28 17:19:00,47.5,27.7,29.85,North,9,2.0,10.0,46,0.00,,,0.04,meteohub,2013-03-28 21:19:00,
2013-03-28 17:24:00,47.5,27.7,29.86,North,355,3.0,8.0,46,0.00,,,0.04,meteohub,2013-03-28 21:24:00,
2013-03-28 17:29:00,47.7,27.9,29.86,North,355,2.0,10.0,46,0.00,,,0.04,meteohub,2013-03-28 21:29:00,
2013-03-28 17:34:00,47.8,28.6,29.86,North,5,4.0,11.0,47,0.00,,,0.04,meteohub,2013-03-28 21:34:00,
2013-03-28 17:40:00,47.8,28.6,29.86,North,5,9.0,11.0,47,0.00,,,0.04,meteohub,2013-03-28 21:40:00,
2013-03-28 17:45:00,47.5,28.2,29.86,NNE,14,6.0,11.0,47,0.00,,,0.04,meteohub,2013-03-28 21:45:00,
2013-03-28 17:50:00,47.1,27.9,29.86,NNW,336,1.0,11.0,47,0.00,,,0.04,meteohub,2013-03-28 21:50:00,
2013-03-28 17:55:00,46.9,27.7,29.86,North,11,2.0,9.0,47,0.00,,,0.04,meteohub,2013-03-28 21:55:00,
2013-03-28 18:01:00,46.8,27.7,29.86,North,351,6.0,10.0,47,0.00,,,0.04,meteohub,2013-03-28 22:01:00,
2013-03-28 18:06:00,46.4,27.9,29.87,NNW,342,4.0,10.0,48,0.00,,,0.04,meteohub,2013-03-28 22:06:00,
2013-03-28 18:11:00,46.2,27.7,29.86,North,5,1.0,10.0,48,0.00,,,0.04,meteohub,2013-03-28 22:11:00,
2013-03-28 18:16:00,46.0,27.9,29.86,NNE,13,6.0,7.0,49,0.00,,,0.04,meteohub,2013-03-28 22:16:00,
2013-03-28 18:22:00,45.9,28.2,29.86,North,11,2.0,6.0,50,0.00,,,0.04,meteohub,2013-03-28 22:22:00,
2013-03-28 18:27:00,45.7,28.6,29.87,North,0,1.0,6.0,51,0.00,,,0.04,meteohub,2013-03-28 22:27:00,
2013-03-28 18:32:00,45.1,28.6,29.87,North,355,1.0,6.0,52,0.00,,,0.04,meteohub,2013-03-28 22:32:00,
2013-03-28 18:37:00,44.8,29.1,29.87,North,355,0.0,4.0,54,0.00,,,0.04,meteohub,2013-03-28 22:37:00,
2013-03-28 18:42:00,44.2,28.6,29.87,North,355,0.0,3.0,54,0.00,,,0.04,meteohub,2013-03-28 22:42:00,
2013-03-28 18:47:00,43.7,29.1,29.87,North,355,0.0,2.0,56,0.00,,,0.04,meteohub,2013-03-28 22:47:00,
2013-03-28 18:52:00,43.3,29.1,29.87,North,355,0.0,1.0,57,0.00,,,0.04,meteohub,2013-03-28 22:52:00,
2013-03-28 18:57:00,43.2,28.9,29.87,North,355,0.0,1.0,57,0.00,,,0.04,meteohub,2013-03-28 22:57:00,
2013-03-28 19:02:00,42.6,28.4,29.88,North,355,0.0,1.0,57,0.00,,,0.04,meteohub,2013-03-28 23:02:00,
2013-03-28 19:07:00,42.3,28.9,29.88,North,355,0.0,0.0,59,0.00,,,0.04,meteohub,2013-03-28 23:07:00,
2013-03-28 19:12:00,41.9,29.5,29.88,North,355,0.0,0.0,61,0.00,,,0.04,meteohub,2013-03-28 23:12:00,
2013-03-28 19:17:00,41.5,30.2,29.88,North,355,0.0,0.0,64,0.00,,,0.04,meteohub,2013-03-28 23:17:00,
2013-03-28 19:22:00,41.0,30.2,29.88,North,355,0.0,0.0,65,0.00,,,0.04,meteohub,2013-03-28 23:22:00,
2013-03-28 19:28:00,40.5,29.7,29.88,North,355,0.0,1.0,65,0.00,,,0.04,meteohub,2013-03-28 23:28:00,
2013-03-28 19:33:00,39.9,29.5,29.88,North,355,0.0,1.0,66,0.00,,,0.04,meteohub,2013-03-28 23:33:00,
2013-03-28 19:38:00,39.7,28.9,29.88,North,355,0.0,1.0,65,0.00,,,0.04,meteohub,2013-03-28 23:38:00,
2013-03-28 19:43:00,39.7,29.3,29.89,North,355,0.0,1.0,66,0.00,,,0.04,meteohub,2013-03-28 23:43:00,
2013-03-28 19:48:00,39.7,30.4,29.89,North,355,0.0,1.0,69,0.00,,,0.04,meteohub,2013-03-28 23:48:00,
2013-03-28 19:53:00,39.6,30.2,29.89,North,355,0.0,0.0,69,0.00,,,0.04,meteohub,2013-03-28 23:53:00,
2013-03-28 19:58:00,40.3,31.3,29.89,NE,34,3.0,6.0,70,0.00,,,0.04,meteohub,2013-03-28 23:58:00,
2013-03-28 20:04:00,41.2,32.9,29.89,North,350,2.0,8.0,72,0.00,,,0.04,meteohub,2013-03-29 00:04:00,
2013-03-28 20:09:00,41.5,32.5,29.89,NNE,25,0.0,8.0,70,0.00,,,0.00,meteohub,2013-03-29 00:09:00,
2013-03-28 20:14:00,41.5,33.3,29.89,NNE,25,0.0,8.0,72,0.00,,,0.00,meteohub,2013-03-29 00:14:00,
2013-03-28 20:19:00,41.2,33.3,29.89,NNE,20,0.0,5.0,73,0.00,,,0.00,meteohub,2013-03-29 00:19:00,
2013-03-28 20:24:00,40.5,32.5,29.90,NW,304,1.0,3.0,73,0.00,,,0.00,meteohub,2013-03-29 00:24:00,
2013-03-28 20:30:00,40.5,33.1,29.90,WNW,294,4.0,4.0,75,0.00,,,0.00,meteohub,2013-03-29 00:30:00,
2013-03-28 20:35:00,40.5,33.4,29.91,NW,311,4.0,5.0,76,0.00,,,0.00,meteohub,2013-03-29 00:35:00,
2013-03-28 20:41:00,40.3,34.0,29.91,North,355,0.0,6.0,78,0.00,,,0.00,meteohub,2013-03-29 00:41:00,
2013-03-28 20:46:00,39.9,34.5,29.90,SW,223,1.0,7.0,81,0.01,,,0.01,meteohub,2013-03-29 00:46:00,
2013-03-28 20:51:00,39.6,34.9,29.90,North,355,0.0,8.0,83,0.01,,,0.01,meteohub,2013-03-29 00:51:00,
2013-03-28 20:56:00,39.4,34.9,29.90,North,11,0.0,8.0,84,0.01,,,0.01,meteohub,2013-03-29 00:56:00,
2013-03-28 21:02:00,39.0,34.9,29.90,North,11,0.0,8.0,85,0.01,,,0.01,meteohub,2013-03-29 01:02:00,
2013-03-28 21:07:00,38.8,34.7,29.91,North,11,0.0,4.0,85,0.01,,,0.01,meteohub,2013-03-29 01:07:00,
2013-03-28 21:12:00,38.5,34.7,29.91,North,11,0.0,0.0,86,0.01,,,0.01,meteohub,2013-03-29 01:12:00,
2013-03-28 21:17:00,37.9,34.7,29.91,North,11,0.0,0.0,88,0.01,,,0.01,meteohub,2013-03-29 01:17:00,
2013-03-28 21:22:00,37.8,35.1,29.91,North,11,0.0,2.0,90,0.01,,,0.01,meteohub,2013-03-29 01:22:00,
2013-03-28 21:27:00,37.6,34.9,29.91,North,11,0.0,2.0,90,0.01,,,0.01,meteohub,2013-03-29 01:27:00,
2013-03-28 21:32:00,37.6,35.2,29.91,North,11,0.0,2.0,91,0.01,,,0.01,meteohub,2013-03-29 01:32:00,
2013-03-28 21:37:00,37.2,34.9,29.91,North,11,0.0,2.0,91,0.01,,,0.01,meteohub,2013-03-29 01:37:00,
2013-03-28 21:43:00,37.2,34.9,29.91,North,11,0.0,2.0,91,0.01,,,0.01,meteohub,2013-03-29 01:43:00,
2013-03-28 21:48:00,37.0,34.7,29.91,North,11,0.0,2.0,91,0.00,,,0.01,meteohub,2013-03-29 01:48:00,
2013-03-28 21:54:00,37.0,34.9,29.91,North,11,0.0,1.0,92,0.00,,,0.01,meteohub,2013-03-29 01:54:00,
2013-03-28 21:59:00,37.2,34.9,29.91,West,266,0.0,1.0,91,0.00,,,0.01,meteohub,2013-03-29 01:59:00,
2013-03-28 22:04:00,37.6,34.9,29.91,West,272,1.0,3.0,90,0.00,,,0.01,meteohub,2013-03-29 02:04:00,
2013-03-28 22:09:00,37.8,34.9,29.91,West,272,0.0,3.0,89,0.00,,,0.01,meteohub,2013-03-29 02:09:00,
2013-03-28 22:15:00,37.6,34.3,29.91,West,272,0.0,3.0,88,0.00,,,0.01,meteohub,2013-03-29 02:15:00,
2013-03-28 22:20:00,37.2,34.3,29.90,WNW,302,3.0,3.0,89,0.00,,,0.01,meteohub,2013-03-29 02:20:00,
2013-03-28 22:25:00,37.6,34.7,29.90,NW,321,0.0,4.0,89,0.00,,,0.01,meteohub,2013-03-29 02:25:00,
2013-03-28 22:31:00,37.8,34.9,29.90,NW,321,0.0,4.0,89,0.00,,,0.01,meteohub,2013-03-29 02:31:00,
2013-03-28 22:36:00,37.8,34.5,29.90,NW,321,0.0,4.0,88,0.00,,,0.01,meteohub,2013-03-29 02:36:00,
2013-03-28 22:41:00,37.6,34.3,29.90,NW,321,0.0,1.0,88,0.00,,,0.01,meteohub,2013-03-29 02:41:00,
2013-03-28 22:47:00,37.6,34.7,29.90,West,271,0.0,1.0,89,0.00,,,0.01,meteohub,2013-03-29 02:47:00,
2013-03-28 22:52:00,37.6,34.7,29.90,North,0,0.0,4.0,89,0.00,,,0.01,meteohub,2013-03-29 02:52:00,
2013-03-28 22:57:00,37.6,34.7,29.90,North,5,0.0,4.0,89,0.00,,,0.01,meteohub,2013-03-29 02:57:00,
2013-03-28 23:02:00,37.6,34.7,29.89,SW,234,1.0,3.0,89,0.00,,,0.01,meteohub,2013-03-29 03:02:00,
2013-03-28 23:07:00,37.8,34.9,29.90,NNW,340,0.0,3.0,89,0.00,,,0.01,meteohub,2013-03-29 03:07:00,
2013-03-28 23:12:00,37.8,34.9,29.89,NNE,28,0.0,3.0,89,0.00,,,0.01,meteohub,2013-03-29 03:12:00,
2013-03-28 23:17:00,37.8,34.9,29.89,NNE,28,0.0,3.0,89,0.00,,,0.01,meteohub,2013-03-29 03:17:00,
2013-03-28 23:22:00,37.8,34.9,29.89,NW,309,0.0,3.0,89,0.00,,,0.01,meteohub,2013-03-29 03:22:00,
2013-03-28 23:28:00,37.8,35.1,29.89,NW,309,0.0,2.0,90,0.00,,,0.01,meteohub,2013-03-29 03:28:00,
2013-03-28 23:33:00,37.8,35.1,29.89,NW,309,0.0,2.0,90,0.00,,,0.01,meteohub,2013-03-29 03:33:00,
2013-03-28 23:38:00,37.6,34.9,29.89,West,275,0.0,2.0,90,0.00,,,0.01,meteohub,2013-03-29 03:38:00,
2013-03-28 23:44:00,37.4,35.1,29.89,West,259,4.0,4.0,91,0.00,,,0.01,meteohub,2013-03-29 03:44:00,
2013-03-28 23:49:00,37.4,35.1,29.89,NW,306,0.0,6.0,91,0.00,,,0.01,meteohub,2013-03-29 03:49:00,
2013-03-28 23:54:00,37.2,34.9,29.89,WNW,292,1.0,6.0,91,0.00,,,0.01,meteohub,2013-03-29 03:54:00,